Time;durP1;ratioP1;P1;durP2;ratioP2;P2;SDS_P1;SDS_P2;PMS_P1;PMS_P2;Temp;Humidity;BMP_temperature;BMP_pressure;BME280_temperature;BME280_humidity;BME280_pressure;Samples;Min_cycle;Max_cycle;Signal;HPM_P1;HPM_P2
2023/06/03 00:01:56;;;;;;;10.83;7.47;;;13.90;99.90;;;;;;5074835;28;20255;-72
2023/06/03 00:04:21;;;;;;;14.90;7.60;;;14.00;99.90;;;;;;5074360;28;20620;-71
2023/06/03 00:06:47;;;;;;;18.40;7.30;;;13.90;99.90;;;;;;5074474;28;20229;-72
2023/06/03 00:09:13;;;;;;;12.47;7.47;;;13.80;99.90;;;;;;5074506;28;20303;-72
2023/06/03 00:11:39;;;;;;;12.33;7.57;;;13.80;99.90;;;;;;5074613;28;20191;-71
2023/06/03 00:14:05;;;;;;;11.37;7.40;;;13.80;99.90;;;;;;5074678;28;20176;-73
2023/06/03 00:16:32;;;;;;;15.20;7.40;;;13.80;99.90;;;;;;5074422;28;20675;-71
2023/06/03 00:18:58;;;;;;;12.30;7.70;;;13.90;99.90;;;;;;5073985;28;20205;-72
2023/06/03 00:21:24;;;;;;;15.10;7.97;;;13.90;99.90;;;;;;5074509;28;20226;-71
2023/06/03 00:23:50;;;;;;;11.97;7.50;;;13.90;99.90;;;;;;5074097;28;20176;-72
2023/06/03 00:26:16;;;;;;;17.23;8.40;;;13.90;99.90;;;;;;5074385;28;20179;-71
2023/06/03 00:28:42;;;;;;;13.50;7.73;;;13.90;99.90;;;;;;5074216;28;20207;-72
2023/06/03 00:31:08;;;;;;;12.07;8.20;;;13.80;99.90;;;;;;5074248;28;20253;-72
2023/06/03 00:33:33;;;;;;;18.83;9.47;;;13.70;99.90;;;;;;5073549;28;20782;-74
2023/06/03 00:35:59;;;;;;;12.63;7.87;;;13.70;99.90;;;;;;5074056;28;20663;-73
2023/06/03 00:38:25;;;;;;;16.50;8.60;;;13.60;99.90;;;;;;5073945;28;20168;-72
2023/06/03 00:40:50;;;;;;;14.37;8.30;;;13.60;99.90;;;;;;5073996;28;20169;-73
2023/06/03 00:43:16;;;;;;;13.10;8.00;;;13.60;99.90;;;;;;5073976;28;20222;-72
2023/06/03 00:45:42;;;;;;;16.17;7.83;;;13.50;99.90;;;;;;5073908;28;20218;-72
2023/06/03 00:48:07;;;;;;;10.00;7.97;;;13.50;99.90;;;;;;5073491;28;20211;-72
2023/06/03 00:50:33;;;;;;;13.53;8.33;;;13.50;99.90;;;;;;5073745;28;20169;-72
2023/06/03 00:53:02;;;;;;;15.30;8.80;;;13.50;99.90;;;;;;5073875;28;20268;-72
2023/06/03 00:55:28;;;;;;;12.30;8.33;;;13.40;99.90;;;;;;5073662;28;20547;-71
2023/06/03 00:57:54;;;;;;;11.63;9.43;;;13.40;99.90;;;;;;5073659;28;20181;-74
2023/06/03 01:00:20;;;;;;;17.83;8.73;;;13.40;99.90;;;;;;5073564;28;20180;-72
2023/06/03 01:02:46;;;;;;;19.37;9.43;;;13.40;99.90;;;;;;5073439;28;20180;-71
2023/06/03 01:05:14;;;;;;;16.10;8.70;;;13.40;99.90;;;;;;5073376;28;20217;-72
2023/06/03 01:08:00;;;;;;;13.23;9.37;;;13.30;99.90;;;;;;5073317;28;20212;-71
2023/06/03 01:10:46;;;;;;;13.00;9.43;;;13.30;99.90;;;;;;5073728;28;20168;-72
2023/06/03 01:13:25;;;;;;;16.53;9.03;;;13.30;99.90;;;;;;5072897;28;20173;-72
2023/06/03 01:16:04;;;;;;;17.80;9.43;;;13.30;99.90;;;;;;5072745;28;20156;-73
2023/06/03 01:18:31;;;;;;;11.20;9.03;;;13.30;99.90;;;;;;5073981;28;20199;-72
2023/06/03 01:20:59;;;;;;;14.90;10.17;;;13.20;99.90;;;;;;5073603;28;20169;-72
2023/06/03 01:23:33;;;;;;;14.10;9.53;;;13.30;99.90;;;;;;5073378;28;20181;-71
2023/06/03 01:26:00;;;;;;;16.90;10.33;;;13.30;99.90;;;;;;5073343;28;20172;-72
2023/06/03 01:28:28;;;;;;;17.20;10.73;;;13.20;99.90;;;;;;5073104;28;20555;-71
2023/06/03 01:30:55;;;;;;;14.37;10.03;;;13.30;99.90;;;;;;5073268;28;20226;-73
2023/06/03 01:33:22;;;;;;;15.20;10.17;;;13.20;99.90;;;;;;5073031;28;20236;-72
2023/06/03 01:35:49;;;;;;;13.93;10.07;;;13.20;99.90;;;;;;5073279;28;20183;-72
2023/06/03 01:38:16;;;;;;;15.33;10.63;;;13.20;99.90;;;;;;5073152;28;20248;-72
2023/06/03 01:40:42;;;;;;;20.70;10.87;;;13.20;99.90;;;;;;5073093;28;20172;-72
2023/06/03 01:43:08;;;;;;;19.63;10.80;;;13.20;99.90;;;;;;5072990;28;20178;-72
2023/06/03 01:45:34;;;;;;;16.47;10.63;;;13.20;99.90;;;;;;5072798;28;20522;-72
2023/06/03 01:48:00;;;;;;;12.77;10.30;;;13.10;99.90;;;;;;5073101;28;20325;-72
2023/06/03 01:50:25;;;;;;;11.63;9.80;;;13.10;99.90;;;;;;5073249;28;20168;-71
2023/06/03 01:52:51;;;;;;;18.60;11.40;;;13.10;99.90;;;;;;5073076;28;20256;-73
2023/06/03 01:55:17;;;;;;;27.63;13.40;;;13.10;99.90;;;;;;5072865;28;20173;-72
2023/06/03 01:57:43;;;;;;;20.30;10.80;;;13.10;99.90;;;;;;5072758;28;20193;-71
2023/06/03 02:00:10;;;;;;;16.87;11.10;;;13.00;99.90;;;;;;5072784;28;20181;-72
2023/06/03 02:02:36;;;;;;;20.47;11.50;;;13.00;99.90;;;;;;5073083;28;20181;-73
2023/06/03 02:05:03;;;;;;;15.67;11.40;;;13.00;99.90;;;;;;5072874;28;20175;-70
2023/06/03 02:07:31;;;;;;;17.93;11.27;;;13.00;99.90;;;;;;5072882;28;20258;-71
2023/06/03 02:09:58;;;;;;;15.97;11.70;;;13.00;99.90;;;;;;5072828;28;20210;-72
2023/06/03 02:12:24;;;;;;;19.40;11.90;;;13.00;99.90;;;;;;5072908;28;20187;-72
2023/06/03 02:14:56;;;;;;;15.53;11.47;;;13.00;99.90;;;;;;5072545;28;20176;-72
2023/06/03 02:17:24;;;;;;;16.33;11.43;;;12.90;99.90;;;;;;5073071;28;20176;-72
2023/06/03 02:19:50;;;;;;;15.57;11.87;;;12.90;99.90;;;;;;5072670;28;20644;-72
2023/06/03 02:22:17;;;;;;;18.60;12.03;;;12.90;99.90;;;;;;5072985;28;20160;-72
2023/06/03 02:24:43;;;;;;;16.40;12.43;;;12.90;99.90;;;;;;5076294;28;20180;-71
2023/06/03 02:27:09;;;;;;;17.97;12.13;;;12.90;99.90;;;;;;5076618;28;20252;-72
2023/06/03 02:29:35;;;;;;;18.73;12.37;;;12.80;99.90;;;;;;5076360;28;20628;-72
2023/06/03 02:32:01;;;;;;;17.47;11.50;;;12.80;99.90;;;;;;5076477;28;20172;-72
2023/06/03 02:34:27;;;;;;;18.63;11.77;;;12.80;99.90;;;;;;5076347;28;20223;-71
2023/06/03 02:36:52;;;;;;;17.10;12.00;;;12.80;99.90;;;;;;5076437;28;20635;-72
2023/06/03 02:39:19;;;;;;;20.17;12.03;;;12.80;99.90;;;;;;5076387;28;20176;-72
2023/06/03 02:41:46;;;;;;;15.77;11.77;;;12.80;99.90;;;;;;5076448;28;20577;-72
2023/06/03 02:44:12;;;;;;;16.50;11.93;;;12.80;99.90;;;;;;5075863;28;20165;-72
2023/06/03 02:46:38;;;;;;;19.20;12.80;;;12.80;99.90;;;;;;5076300;28;20180;-73
2023/06/03 02:49:05;;;;;;;19.90;12.27;;;12.80;99.90;;;;;;5076262;28;20173;-71
2023/06/03 02:51:31;;;;;;;20.50;11.47;;;12.80;99.90;;;;;;5076244;28;20168;-73
2023/06/03 02:53:56;;;;;;;17.23;12.17;;;12.70;99.90;;;;;;5076269;28;20172;-72
2023/06/03 02:56:23;;;;;;;17.60;11.73;;;12.60;99.90;;;;;;5075899;28;20185;-71
2023/06/03 02:58:50;;;;;;;16.13;12.13;;;12.60;99.90;;;;;;5075239;28;20168;-72
2023/06/03 03:01:16;;;;;;;18.57;12.97;;;12.60;99.90;;;;;;5075878;28;20187;-71
2023/06/03 03:03:42;;;;;;;17.57;12.40;;;12.60;99.90;;;;;;5075799;28;20195;-71
2023/06/03 03:06:11;;;;;;;19.30;12.37;;;12.60;99.90;;;;;;5075799;28;20211;-71
2023/06/03 03:08:37;;;;;;;19.80;13.03;;;12.60;99.90;;;;;;5075642;28;20225;-73
2023/06/03 03:11:03;;;;;;;14.27;12.77;;;12.70;99.90;;;;;;5075697;28;20255;-72
2023/06/03 03:13:29;;;;;;;16.67;12.10;;;12.60;99.90;;;;;;5075184;28;20561;-72
2023/06/03 03:15:55;;;;;;;15.90;12.47;;;12.60;99.90;;;;;;5075636;28;20294;-70
2023/06/03 03:18:20;;;;;;;19.07;13.17;;;12.50;99.90;;;;;;5075352;28;20672;-71
2023/06/03 03:20:46;;;;;;;18.90;13.17;;;12.50;99.90;;;;;;5075102;28;20624;-71
2023/06/03 03:23:13;;;;;;;21.20;12.83;;;12.50;99.90;;;;;;5075301;28;20546;-71
2023/06/03 03:25:40;;;;;;;18.97;13.13;;;12.50;99.90;;;;;;5075606;28;20677;-73
2023/06/03 03:28:06;;;;;;;16.53;13.37;;;12.50;99.90;;;;;;5074900;28;20598;-73
2023/06/03 03:30:32;;;;;;;19.37;13.60;;;12.40;99.90;;;;;;5075265;28;20196;-72
2023/06/03 03:32:59;;;;;;;18.63;13.53;;;12.40;99.90;;;;;;5075016;28;20221;-72
2023/06/03 03:35:25;;;;;;;17.80;12.80;;;12.40;99.90;;;;;;5074667;28;20175;-72
2023/06/03 03:38:00;;;;;;;22.23;13.63;;;12.40;99.90;;;;;;5075387;28;20203;-71
2023/06/03 03:40:26;;;;;;;18.57;13.63;;;12.40;99.90;;;;;;5074834;28;20164;-72
2023/06/03 03:42:53;;;;;;;22.17;13.50;;;12.40;99.90;;;;;;5074994;28;20167;-72
2023/06/03 03:45:21;;;;;;;21.13;13.27;;;12.40;99.90;;;;;;5074945;28;20180;-72
2023/06/03 03:47:50;;;;;;;19.77;13.50;;;12.40;99.90;;;;;;5074676;28;20295;-72
2023/06/03 03:50:22;;;;;;;18.17;12.80;;;12.40;99.90;;;;;;5073519;28;20567;-71
2023/06/03 03:52:48;;;;;;;20.00;12.17;;;12.50;99.90;;;;;;5075226;28;20168;-71
2023/06/03 03:55:16;;;;;;;22.33;13.07;;;12.50;99.90;;;;;;5074452;28;20667;-72
2023/06/03 03:57:41;;;;;;;18.67;12.80;;;12.60;99.90;;;;;;5074595;28;20200;-71
2023/06/03 04:00:09;;;;;;;17.90;12.73;;;12.80;99.90;;;;;;5075029;28;20179;-72
2023/06/03 04:02:42;;;;;;;17.13;12.30;;;13.00;99.90;;;;;;5074779;28;20219;-71
2023/06/03 04:05:14;;;;;;;18.47;11.87;;;13.10;99.90;;;;;;5074653;28;20175;-72
2023/06/03 04:07:40;;;;;;;16.87;11.93;;;13.30;99.90;;;;;;5074397;28;20618;-71
2023/06/03 04:10:09;;;;;;;15.23;11.67;;;13.60;99.90;;;;;;5074166;28;20243;-71
2023/06/03 04:12:36;;;;;;;15.40;11.90;;;13.70;99.90;;;;;;5073981;28;20169;-71
2023/06/03 04:15:03;;;;;;;13.67;10.50;;;14.10;99.90;;;;;;5074302;28;20172;-72
2023/06/03 04:17:30;;;;;;;18.20;11.20;;;14.40;99.90;;;;;;5074157;28;20314;-71
2023/06/03 04:19:56;;;;;;;15.53;10.57;;;14.60;99.90;;;;;;5074055;28;20172;-71
2023/06/03 04:22:23;;;;;;;15.83;10.33;;;15.00;96.40;;;;;;5073897;28;20184;-71
2023/06/03 04:24:56;;;;;;;11.63;9.77;;;15.20;91.20;;;;;;5072334;28;20179;-73
2023/06/03 04:27:22;;;;;;;18.20;10.33;;;15.20;73.80;;;;;;5073916;28;20212;-73
2023/06/03 04:29:49;;;;;;;14.63;9.60;;;15.20;75.10;;;;;;5072589;28;20236;-71
2023/06/03 04:32:14;;;;;;;12.13;9.30;;;15.60;73.50;;;;;;5074182;28;20172;-71
2023/06/03 04:34:53;;;;;;;14.77;9.90;;;15.70;49.60;;;;;;5073405;28;20699;-71
2023/06/03 04:37:20;;;;;;;15.57;10.17;;;15.80;51.30;;;;;;5074023;28;20265;-71
2023/06/03 04:39:46;;;;;;;15.60;9.53;;;16.10;41.20;;;;;;5073284;28;20621;-72
2023/06/03 04:42:12;;;;;;;11.27;9.27;;;16.00;42.30;;;;;;5073018;28;20179;-71
2023/06/03 04:44:39;;;;;;;14.57;9.73;;;16.20;36.70;;;;;;5073788;28;20173;-72
2023/06/03 04:47:10;;;;;;;18.67;9.43;;;16.50;24.30;;;;;;5072862;28;20200;-72
2023/06/03 04:49:39;;;;;;;11.67;8.77;;;16.50;19.90;;;;;;5073195;28;20172;-71
2023/06/03 04:52:09;;;;;;;14.27;9.60;;;16.70;12.00;;;;;;5073418;28;20198;-71
2023/06/03 04:54:40;;;;;;;15.63;9.60;;;16.70;17.70;;;;;;5072798;28;20195;-72
2023/06/03 04:57:06;;;;;;;12.30;9.23;;;17.10;4.90;;;;;;5072898;28;20180;-71
2023/06/03 04:59:31;;;;;;;15.80;9.00;;;17.20;1.00;;;;;;5073156;28;20196;-71
2023/06/03 05:01:57;;;;;;;12.07;8.60;;;17.80;1.00;;;;;;5073235;28;20203;-72
2023/06/03 05:04:23;;;;;;;10.57;8.87;;;18.00;1.00;;;;;;5073482;28;20176;-72
2023/06/03 05:06:49;;;;;;;12.00;9.00;;;17.90;1.00;;;;;;5073099;28;20247;-71
2023/06/03 05:09:15;;;;;;;13.90;9.10;;;18.00;1.00;;;;;;5072692;28;20267;-73
2023/06/03 05:11:42;;;;;;;13.87;8.70;;;18.40;1.00;;;;;;5073163;28;20176;-73
2023/06/03 05:14:08;;;;;;;12.07;8.87;;;18.50;1.00;;;;;;5072960;28;20177;-73
2023/06/03 05:16:35;;;;;;;13.47;8.63;;;18.50;1.00;;;;;;5073185;28;20258;-73
2023/06/03 05:19:00;;;;;;;13.75;8.70;;;19.40;1.00;;;;;;5073428;28;20267;-73
2023/06/03 05:21:26;;;;;;;17.40;8.63;;;20.00;1.00;;;;;;5073190;28;20639;-72
2023/06/03 05:23:51;;;;;;;13.68;8.77;;;20.70;1.00;;;;;;5072299;28;20206;-72
2023/06/03 05:26:17;;;;;;;13.57;8.30;;;20.40;1.00;;;;;;5073150;28;20302;-72
2023/06/03 05:28:43;;;;;;;12.57;8.77;;;19.60;1.00;;;;;;5072630;28;20216;-72
2023/06/03 05:31:09;;;;;;;13.90;7.60;;;19.40;1.00;;;;;;5073281;28;20168;-74
2023/06/03 05:33:35;;;;;;;9.18;7.60;;;20.30;1.00;;;;;;5072631;28;20766;-74
2023/06/03 05:36:01;;;;;;;12.68;7.95;;;20.60;1.00;;;;;;5073003;28;20654;-74
2023/06/03 05:38:27;;;;;;;10.93;8.18;;;20.40;1.00;;;;;;5072615;28;20168;-75
2023/06/03 05:40:56;;;;;;;14.52;8.30;;;20.00;1.00;;;;;;5072676;28;20251;-75
2023/06/03 05:43:23;;;;;;;11.50;8.20;;;21.20;99.90;;;;;;5072898;28;20169;-74
2023/06/03 05:45:49;;;;;;;13.85;8.00;;;21.60;99.90;;;;;;5073063;28;20176;-74
2023/06/03 05:48:15;;;;;;;9.45;8.00;;;21.80;1.00;;;;;;5072394;28;20294;-74
2023/06/03 05:50:50;;;;;;;12.10;8.30;;;22.00;1.00;;;;;;5071593;28;20636;-74
2023/06/03 05:53:18;;;;;;;9.82;7.85;;;21.80;1.00;;;;;;5072851;28;20164;-73
2023/06/03 05:55:44;;;;;;;12.20;7.25;;;21.40;99.90;;;;;;5072555;28;20196;-74
2023/06/03 05:58:10;;;;;;;10.98;7.60;;;22.00;1.00;;;;;;5073497;28;20606;-76
2023/06/03 06:00:35;;;;;;;8.65;6.93;;;22.30;2.80;;;;;;5075561;28;20187;-74
2023/06/03 06:03:01;;;;;;;9.80;7.38;;;21.60;99.90;;;;;;5076894;28;20165;-73
2023/06/03 06:05:26;;;;;;;8.93;7.00;;;20.90;99.90;;;;;;5075925;28;20195;-73
2023/06/03 06:07:52;;;;;;;10.35;7.50;;;21.20;99.90;;;;;;5076792;28;20204;-74
2023/06/03 06:10:18;;;;;;;16.05;7.75;;;21.60;7.10;;;;;;5076366;28;20176;-73
2023/06/03 06:12:43;;;;;;;9.95;6.63;;;21.50;1.00;;;;;;5076159;28;20173;-74
2023/06/03 06:15:09;;;;;;;10.25;7.25;;;21.80;1.00;;;;;;5076569;28;20173;-74
2023/06/03 06:17:35;;;;;;;12.55;7.40;;;22.70;99.90;;;;;;5076079;28;20172;-74
2023/06/03 06:20:02;;;;;;;14.43;7.13;;;23.80;1.00;;;;;;5075838;28;20180;-73
2023/06/03 06:22:28;;;;;;;10.77;6.97;;;23.20;1.00;;;;;;5076450;28;20682;-74
2023/06/03 06:24:54;;;;;;;9.48;6.63;;;23.30;99.90;;;;;;5076337;28;20164;-75
2023/06/03 06:27:19;;;;;;;7.00;6.28;;;23.00;99.90;;;;;;5076509;28;20208;-75
2023/06/03 06:29:45;;;;;;;8.88;6.60;;;23.30;1.00;;;;;;5075861;28;20603;-74
2023/06/03 06:32:21;;;;;;;9.85;7.13;;;23.60;99.90;;;;;;5076209;28;20172;-74
2023/06/03 06:34:46;;;;;;;9.07;6.22;;;24.50;1.00;;;;;;5075306;28;20329;-74
2023/06/03 06:37:13;;;;;;;10.75;7.05;;;24.00;1.00;;;;;;5075457;28;20317;-74
2023/06/03 06:39:50;;;;;;;9.35;5.40;;;23.80;1.00;;;;;;5075868;28;20175;-74
2023/06/03 06:42:22;;;;;;;8.43;6.55;;;24.00;1.00;;;;;;5076202;28;20183;-74
2023/06/03 06:44:49;;;;;;;8.43;6.20;;;24.90;1.00;;;;;;5074333;28;20172;-74
2023/06/03 06:47:21;;;;;;;10.02;5.95;;;24.60;99.90;;;;;;5075949;28;20303;-75
2023/06/03 06:49:48;;;;;;;10.65;6.00;;;24.30;99.90;;;;;;5075245;28;20662;-75
2023/06/03 06:52:19;;;;;;;7.60;5.88;;;24.50;1.00;;;;;;5075934;28;20173;-75
2023/06/03 06:54:45;;;;;;;9.10;6.45;;;25.60;99.90;;;;;;5075626;28;20171;-75
2023/06/03 06:57:17;;;;;;;7.35;5.68;;;25.90;1.00;;;;;;5075363;28;20260;-76
2023/06/03 06:59:43;;;;;;;13.15;5.47;;;25.90;16.90;;;;;;5075317;28;20256;-74
2023/06/03 07:02:09;;;;;;;7.28;5.35;;;25.10;99.90;;;;;;5075655;28;20263;-75
2023/06/03 07:04:35;;;;;;;9.02;5.85;;;24.80;99.90;;;;;;5074905;28;20591;-75
2023/06/03 07:07:00;;;;;;;8.55;5.50;;;24.60;1.00;;;;;;5075108;28;20270;-75
2023/06/03 07:09:26;;;;;;;8.80;5.47;;;24.60;1.00;;;;;;5074842;28;20627;-75
2023/06/03 07:11:51;;;;;;;10.68;5.78;;;24.20;1.00;;;;;;5075222;28;20193;-75
2023/06/03 07:14:17;;;;;;;7.35;5.05;;;23.60;1.00;;;;;;5075495;28;20184;-76
2023/06/03 07:16:43;;;;;;;8.43;5.50;;;23.70;99.90;;;;;;5075488;28;20169;-76
2023/06/03 07:19:08;;;;;;;11.82;5.32;;;24.80;99.90;;;;;;5074929;28;20168;-74
2023/06/03 07:21:34;;;;;;;6.53;5.03;;;24.30;1.00;;;;;;5074770;28;20240;-75
2023/06/03 07:24:00;;;;;;;6.85;5.10;;;23.90;1.00;;;;;;5075176;28;20289;-74
2023/06/03 07:26:27;;;;;;;9.02;4.97;;;24.30;1.00;;;;;;5075313;28;20256;-75
2023/06/03 07:28:57;;;;;;;5.20;4.70;;;24.10;1.00;;;;;;5075102;28;20216;-74
2023/06/03 07:31:23;;;;;;;9.07;4.43;;;24.60;1.00;;;;;;5074829;28;20173;-75
2023/06/03 07:33:50;;;;;;;6.18;4.72;;;24.20;1.00;;;;;;5074426;28;20729;-75
2023/06/03 07:36:18;;;;;;;5.00;4.60;;;25.00;99.90;;;;;;5074836;28;20636;-77
2023/06/03 07:39:06;;;;;;;5.72;4.38;;;25.10;37.40;;;;;;5074901;28;20179;-75
2023/06/03 07:41:36;;;;;;;6.80;4.18;;;25.30;1.00;;;;;;5073520;28;20279;-76
2023/06/03 07:44:07;;;;;;;5.72;3.95;;;25.60;1.00;;;;;;5073945;28;20199;-75
2023/06/03 07:46:44;;;;;;;10.18;4.22;;;25.50;1.00;;;;;;5074649;28;20179;-74
2023/06/03 07:49:15;;;;;;;6.30;4.13;;;25.70;1.00;;;;;;5074048;28;20192;-75
2023/06/03 07:51:45;;;;;;;4.82;3.38;;;26.50;1.00;;;;;;5074928;28;20179;-75
2023/06/03 07:54:11;;;;;;;6.55;3.50;;;26.40;1.00;;;;;;5074396;28;20643;-76
2023/06/03 07:56:36;;;;;;;5.20;3.78;;;27.00;99.90;;;;;;5074492;28;20264;-75
2023/06/03 07:59:08;;;;;;;4.32;3.92;;;27.40;99.90;;;;;;5073779;28;20221;-74
2023/06/03 08:01:35;;;;;;;6.18;3.90;;;27.10;99.90;;;;;;5074146;28;20176;-75
2023/06/03 08:04:17;;;;;;;7.32;3.78;;;26.30;99.90;;;;;;5074651;28;20299;-75
2023/06/03 08:06:44;;;;;;;4.88;3.38;;;26.50;99.90;;;;;;5074036;28;20212;-75
2023/06/03 08:09:23;;;;;;;4.57;3.45;;;26.50;99.90;;;;;;5074193;28;20184;-74
2023/06/03 08:11:48;;;;;;;6.75;3.78;;;26.90;99.90;;;;;;5074533;28;20164;-74
2023/06/03 08:14:14;;;;;;;4.72;2.95;;;26.90;99.90;;;;;;5073869;28;20697;-76
2023/06/03 08:16:39;;;;;;;5.68;3.05;;;27.90;99.90;;;;;;5073548;28;20264;-76
2023/06/03 08:19:07;;;;;;;7.05;2.95;;;26.20;99.90;;;;;;5073635;28;20603;-75
2023/06/03 08:21:33;;;;;;;5.30;3.70;;;25.80;99.90;;;;;;5073682;28;20628;-75
2023/06/03 08:24:00;;;;;;;4.32;2.55;;;25.80;99.90;;;;;;5073873;28;20176;-74
2023/06/03 08:26:26;;;;;;;3.40;2.75;;;25.20;99.90;;;;;;5074181;28;20580;-73
2023/06/03 08:28:52;;;;;;;6.43;3.28;;;24.00;99.90;;;;;;5073723;28;20216;-75
2023/06/03 08:31:18;;;;;;;5.93;3.08;;;25.20;99.90;;;;;;5073133;28;20636;-76
2023/06/03 08:33:43;;;;;;;7.38;3.45;;;26.70;99.90;;;;;;5073546;28;20212;-75
2023/06/03 08:36:09;;;;;;;3.85;3.20;;;26.90;99.90;;;;;;5074061;28;20169;-75
2023/06/03 08:38:35;;;;;;;3.10;2.55;;;25.90;99.90;;;;;;5073673;28;20514;-74
2023/06/03 08:41:01;;;;;;;8.85;2.63;;;25.30;99.90;;;;;;5073396;28;20632;-75
2023/06/03 08:43:32;;;;;;;3.75;2.30;;;25.10;99.90;;;;;;5073556;28;20181;-74
2023/06/03 08:46:26;;;;;;;5.22;2.72;;;24.80;99.90;;;;;;5072849;28;20170;-74
2023/06/03 08:49:07;;;;;;;3.75;2.80;;;24.70;99.90;;;;;;5073504;28;20732;-75
2023/06/03 08:51:38;;;;;;;4.47;2.95;;;24.80;99.90;;;;;;5073345;28;20573;-75
2023/06/03 08:54:13;;;;;;;5.07;2.55;;;25.20;99.90;;;;;;5073051;28;20255;-75
2023/06/03 08:56:44;;;;;;;3.08;2.55;;;25.70;99.90;;;;;;5072808;28;20196;-75
2023/06/03 08:59:15;;;;;;;3.97;2.13;;;25.40;99.90;;;;;;5073350;28;20196;-75
2023/06/03 09:01:45;;;;;;;4.50;2.47;;;24.90;99.90;;;;;;5073170;28;20214;-75
2023/06/03 09:04:12;;;;;;;3.90;2.40;;;24.90;99.90;;;;;;5073198;28;20223;-75
2023/06/03 09:06:43;;;;;;;3.53;2.38;;;24.30;99.90;;;;;;5072896;28;20168;-75
2023/06/03 09:09:10;;;;;;;2.42;2.22;;;24.30;99.90;;;;;;5072856;28;20173;-75
2023/06/03 09:11:36;;;;;;;4.30;2.50;;;24.40;99.90;;;;;;5072174;28;20164;-74
2023/06/03 09:14:03;;;;;;;5.38;2.30;;;24.00;99.90;;;;;;5072814;28;20211;-75
2023/06/03 09:16:30;;;;;;;4.57;2.50;;;23.90;99.90;;;;;;5073155;28;20165;-73
2023/06/03 09:18:57;;;;;;;5.05;2.30;;;23.30;99.90;;;;;;5072162;28;20173;-75
2023/06/03 09:21:23;;;;;;;4.03;2.30;;;23.60;99.90;;;;;;5072709;28;20164;-74
2023/06/03 09:23:51;;;;;;;4.82;2.25;;;23.80;99.90;;;;;;5073165;28;20196;-74
2023/06/03 09:26:17;;;;;;;3.92;2.28;;;24.50;99.90;;;;;;5073342;28;20611;-73
2023/06/03 09:28:44;;;;;;;4.65;2.55;;;23.90;99.90;;;;;;5072502;28;20299;-75
2023/06/03 09:31:10;;;;;;;3.40;2.10;;;24.10;99.90;;;;;;5072749;28;20165;-74
2023/06/03 09:33:36;;;;;;;3.00;2.17;;;24.40;99.90;;;;;;5071328;28;20307;-75
2023/06/03 09:36:13;;;;;;;3.85;2.55;;;24.40;99.90;;;;;;5072325;28;20176;-75
2023/06/03 09:38:55;;;;;;;5.68;2.22;;;24.20;99.90;;;;;;5072982;28;20168;-76
2023/06/03 09:41:30;;;;;;;5.53;2.10;;;24.60;99.90;;;;;;5072776;28;20219;-74
2023/06/03 09:44:06;;;;;;;7.35;2.63;;;24.00;99.90;;;;;;5072252;28;20160;-75
2023/06/03 09:46:33;;;;;;;2.95;2.33;;;23.40;99.90;;;;;;5072875;28;20233;-75
2023/06/03 09:49:11;;;;;;;3.13;2.00;;;23.30;99.90;;;;;;5071926;28;20204;-74
2023/06/03 09:51:45;;;;;;;3.58;2.25;;;22.60;99.90;;;;;;5072842;28;20168;-74
2023/06/03 09:54:14;;;;;;;4.13;2.70;;;22.80;99.90;;;;;;5072722;28;20264;-75
2023/06/03 09:56:40;;;;;;;5.50;2.63;;;23.70;99.90;;;;;;5072269;28;20812;-74
2023/06/03 09:59:22;;;;;;;6.18;2.15;;;24.40;99.90;;;;;;5071636;28;20172;-74
2023/06/03 10:01:50;;;;;;;4.53;2.33;;;24.10;99.90;;;;;;5072488;28;20230;-76
2023/06/03 10:04:22;;;;;;;4.50;2.22;;;24.60;99.90;;;;;;5071983;28;20160;-75
2023/06/03 10:06:49;;;;;;;6.88;2.58;;;24.80;99.90;;;;;;5071839;28;20176;-74
2023/06/03 10:09:22;;;;;;;6.10;2.45;;;24.50;99.90;;;;;;5072066;28;20181;-75
2023/06/03 10:11:50;;;;;;;7.70;2.70;;;24.30;99.90;;;;;;5072190;28;20172;-74
2023/06/03 10:14:21;;;;;;;3.08;2.15;;;23.90;99.90;;;;;;5072335;28;20173;-74
2023/06/03 10:17:05;;;;;;;3.60;3.30;;;24.30;99.90;;;;;;5071930;28;20662;-74
2023/06/03 10:19:33;;;;;;;4.07;2.22;;;23.60;99.90;;;;;;5072127;28;20527;-73
2023/06/03 10:21:59;;;;;;;6.60;2.72;;;24.00;99.90;;;;;;5072129;28;20176;-73
2023/06/03 10:24:27;;;;;;;3.53;2.60;;;24.00;99.90;;;;;;5072176;28;20230;-74
2023/06/03 10:26:54;;;;;;;4.40;2.40;;;23.80;99.90;;;;;;5071620;28;20212;-75
2023/06/03 10:29:20;;;;;;;2.60;2.40;;;23.60;99.90;;;;;;5071794;28;20188;-75
2023/06/03 10:31:49;;;;;;;3.38;2.30;;;22.70;99.90;;;;;;5072173;28;20227;-75
2023/06/03 10:34:16;;;;;;;4.65;2.20;;;23.30;99.90;;;;;;5071984;28;20229;-74
2023/06/03 10:36:42;;;;;;;3.70;3.10;;;23.50;99.90;;;;;;5071861;28;20255;-75
2023/06/03 10:39:11;;;;;;;5.43;2.80;;;23.50;99.90;;;;;;5072418;28;20312;-75
2023/06/03 10:41:38;;;;;;;3.80;2.42;;;23.40;99.90;;;;;;5071699;28;20619;-75
2023/06/03 10:44:04;;;;;;;5.65;2.88;;;23.70;99.90;;;;;;5071601;28;20172;-75
2023/06/03 10:46:30;;;;;;;4.00;2.50;;;24.40;99.90;;;;;;5075306;28;20522;-75
2023/06/03 10:48:57;;;;;;;5.82;2.53;;;24.20;99.90;;;;;;5075088;28;20667;-76
2023/06/03 10:51:52;;;;;;;3.22;2.72;;;24.40;99.90;;;;;;5075523;28;20241;-76
2023/06/03 10:54:40;;;;;;;4.88;2.90;;;23.30;99.90;;;;;;5075417;28;20270;-75
2023/06/03 10:57:09;;;;;;;3.38;2.13;;;23.70;99.90;;;;;;5075030;28;20188;-75
2023/06/03 10:59:41;;;;;;;4.60;2.28;;;23.60;99.90;;;;;;5075224;28;20172;-75
2023/06/03 11:02:07;;;;;;;2.88;2.28;;;23.70;99.90;;;;;;5074867;28;20181;-77
2023/06/03 11:04:36;;;;;;;7.00;2.40;;;23.60;99.90;;;;;;5075212;28;20260;-76
2023/06/03 11:07:02;;;;;;;3.58;3.25;;;23.40;99.90;;;;;;5075074;28;20177;-74
2023/06/03 11:09:40;;;;;;;5.35;2.42;;;23.20;99.90;;;;;;5074402;28;20176;-75
2023/06/03 11:12:13;;;;;;;4.50;2.03;;;23.10;99.90;;;;;;5074452;28;20165;-74
2023/06/03 11:14:48;;;;;;;2.67;2.15;;;23.30;99.90;;;;;;5074717;28;20655;-76
2023/06/03 11:17:15;;;;;;;3.08;1.88;;;23.60;99.90;;;;;;5075452;28;20192;-76
2023/06/03 11:19:44;;;;;;;4.97;2.28;;;23.50;99.90;;;;;;5074553;28;20693;-75
2023/06/03 11:22:11;;;;;;;4.10;2.30;;;23.20;99.90;;;;;;5075133;28;20175;-75
2023/06/03 11:24:39;;;;;;;3.45;2.08;;;23.20;99.90;;;;;;5074445;28;20271;-74
2023/06/03 11:27:14;;;;;;;6.88;2.30;;;23.40;99.90;;;;;;5074324;28;20272;-75
2023/06/03 11:29:46;;;;;;;4.18;2.20;;;23.70;99.90;;;;;;5074308;28;20184;-75
2023/06/03 11:32:12;;;;;;;5.30;1.90;;;23.50;99.90;;;;;;5075029;28;20175;-75
2023/06/03 11:34:38;;;;;;;5.00;2.25;;;23.00;99.90;;;;;;5074319;28;20316;-74
2023/06/03 11:37:04;;;;;;;2.45;1.88;;;23.40;99.90;;;;;;5074350;28;20204;-75
2023/06/03 11:39:58;;;;;;;4.13;2.35;;;24.40;99.90;;;;;;5074102;28;20165;-76
2023/06/03 11:42:23;;;;;;;4.63;2.50;;;24.20;99.90;;;;;;5074845;28;20165;-74
2023/06/03 11:44:49;;;;;;;5.03;2.40;;;23.60;99.90;;;;;;5073786;28;20244;-75
2023/06/03 11:47:15;;;;;;;3.40;2.05;;;23.30;99.90;;;;;;5075357;28;20231;-75
2023/06/03 11:49:40;;;;;;;2.30;2.10;;;23.30;99.90;;;;;;5074214;28;20172;-74
2023/06/03 11:52:07;;;;;;;5.20;2.20;;;23.70;99.90;;;;;;5073989;28;20171;-75
2023/06/03 11:54:35;;;;;;;5.43;2.78;;;23.60;99.90;;;;;;5074246;28;20619;-74
2023/06/03 11:57:02;;;;;;;3.53;2.50;;;23.30;99.90;;;;;;5073833;28;20203;-76
2023/06/03 11:59:35;;;;;;;4.13;2.65;;;22.10;99.90;;;;;;5074158;28;20184;-75
2023/06/03 12:02:03;;;;;;;3.05;2.40;;;22.10;99.90;;;;;;5074384;28;20183;-74
2023/06/03 12:04:30;;;;;;;2.63;2.00;;;22.50;99.90;;;;;;5073836;28;20180;-76
2023/06/03 12:06:56;;;;;;;2.95;2.33;;;22.80;99.90;;;;;;5074409;28;20214;-74
2023/06/03 12:09:24;;;;;;;3.28;2.22;;;23.20;99.90;;;;;;5074072;28;20648;-74
2023/06/03 12:11:49;;;;;;;4.05;2.35;;;23.30;99.90;;;;;;5074062;28;20171;-74
2023/06/03 12:14:32;;;;;;;5.28;2.13;;;23.30;99.90;;;;;;5073211;28;20523;-75
2023/06/03 12:17:08;;;;;;;4.68;2.28;;;23.20;99.90;;;;;;5074407;28;20172;-73
2023/06/03 12:19:37;;;;;;;3.25;1.92;;;23.20;99.90;;;;;;5073745;28;20171;-74
2023/06/03 12:22:02;;;;;;;4.85;2.00;;;23.20;99.90;;;;;;5073439;28;20245;-75
2023/06/03 12:24:30;;;;;;;8.20;2.80;;;22.70;99.90;;;;;;5073352;28;20632;-74
2023/06/03 12:26:57;;;;;;;4.03;2.30;;;23.00;99.90;;;;;;5073330;28;20251;-76
2023/06/03 12:29:24;;;;;;;3.92;2.20;;;23.40;99.90;;;;;;5073313;28;20176;-75
2023/06/03 12:32:00;;;;;;;4.25;2.20;;;23.40;99.90;;;;;;5073675;28;20177;-75
2023/06/03 12:34:36;;;;;;;3.63;2.10;;;23.20;99.90;;;;;;5073103;28;20220;-75
2023/06/03 12:37:03;;;;;;;5.60;2.70;;;22.90;99.90;;;;;;5073006;28;20222;-75
2023/06/03 12:39:48;;;;;;;5.40;3.05;;;22.70;99.90;;;;;;5073261;28;20172;-75
2023/06/03 12:42:15;;;;;;;9.18;2.45;;;22.90;99.90;;;;;;5073303;28;20209;-75
2023/06/03 12:44:52;;;;;;;3.85;2.20;;;23.10;99.90;;;;;;5073512;28;20173;-75
2023/06/03 12:47:19;;;;;;;2.38;2.03;;;23.30;99.90;;;;;;5073559;28;20231;-74